Time;durP1;ratioP1;P1;durP2;ratioP2;P2;SDS_P1;SDS_P2;PMS_P1;PMS_P2;Temp;Humidity;BMP_temperature;BMP_pressure;BME280_temperature;BME280_humidity;BME280_pressure;Samples;Min_cycle;Max_cycle;Signal;HPM_P1;HPM_P2
2021/07/14 00:02:35;;;;;;;38.38;26.42;;;;;;;19.60;84.21;101012.00;10460652;28;20439;-60
2021/07/14 00:07:38;;;;;;;47.85;30.02;;;;;;;19.40;85.15;101003.22;10461004;28;20060;-59
2021/07/14 00:12:56;;;;;;;43.55;28.60;;;;;;;19.35;85.02;100994.84;10461400;28;20055;-60
2021/07/14 00:23:02;;;;;;;49.45;29.40;;;;;;;19.17;85.90;100983.25;10460721;28;20049;-60
2021/07/14 00:28:05;;;;;;;36.85;24.80;;;;;;;19.28;85.14;100973.31;10460071;28;20420;-59
2021/07/14 00:33:07;;;;;;;52.30;29.02;;;;;;;19.26;85.37;100969.13;10459960;28;20056;-60
2021/07/14 00:38:11;;;;;;;44.67;27.98;;;;;;;19.37;84.29;100961.00;10459549;28;20501;-60
2021/07/14 00:43:13;;;;;;;40.97;25.35;;;;;;;19.43;84.00;100975.53;10458341;28;20076;-59
2021/07/14 00:48:20;;;;;;;45.80;26.63;;;;;;;19.28;84.36;100968.00;10459033;28;20424;-61
2021/07/14 00:53:23;;;;;;;35.92;23.23;;;;;;;19.27;84.58;100968.97;10459267;28;20045;-60
2021/07/14 00:58:25;;;;;;;36.85;25.70;;;;;;;19.29;84.31;100971.50;10458854;28;20047;-59
2021/07/14 01:03:31;;;;;;;37.05;25.55;;;;;;;19.15;84.95;100974.56;10457995;28;20059;-61
2021/07/14 01:08:41;;;;;;;38.42;24.90;;;;;;;19.19;84.78;100979.47;10457793;28;20057;-61
2021/07/14 01:13:49;;;;;;;31.37;22.43;;;;;;;19.11;84.47;100980.19;10457075;28;20520;-59
2021/07/14 01:19:10;;;;;;;32.53;24.67;;;;;;;19.20;84.24;100989.09;10456638;28;20056;-61
2021/07/14 01:24:38;;;;;;;36.00;24.88;;;;;;;19.00;85.04;100988.25;10457043;28;20048;-60
2021/07/14 01:29:46;;;;;;;33.13;22.58;;;;;;;19.18;84.22;100998.16;10456113;28;20413;-59
2021/07/14 01:34:55;;;;;;;32.42;23.45;;;;;;;19.30;83.60;101003.22;10456378;28;20063;-60
2021/07/14 01:40:00;;;;;;;29.30;22.77;;;;;;;19.01;84.77;100989.91;10455763;28;20052;-61
2021/07/14 01:45:03;;;;;;;29.92;22.08;;;;;;;18.97;85.08;100983.22;10456853;28;20497;-60
2021/07/14 01:50:06;;;;;;;34.28;24.33;;;;;;;19.15;84.31;100979.88;10456728;28;20052;-59
2021/07/14 01:55:10;;;;;;;28.25;20.48;;;;;;;19.12;84.55;100981.84;10455946;28;20045;-61
2021/07/14 02:00:13;;;;;;;32.58;24.58;;;;;;;19.08;84.33;100971.63;10455412;28;20049;-61
2021/07/14 02:05:15;;;;;;;34.35;23.98;;;;;;;19.15;84.42;100970.13;10455332;28;20056;-60
2021/07/14 02:10:18;;;;;;;32.88;23.70;;;;;;;19.08;84.88;100971.63;10455165;28;20053;-60
2021/07/14 02:15:22;;;;;;;32.90;22.00;;;;;;;18.97;85.29;100964.66;10456590;28;20045;-60
2021/07/14 02:20:25;;;;;;;30.80;22.73;;;;;;;18.91;85.31;100962.53;10456107;28;20511;-60
2021/07/14 02:25:27;;;;;;;30.17;22.80;;;;;;;19.06;85.00;100953.22;10454977;28;20053;-61
2021/07/14 02:30:30;;;;;;;29.05;21.95;;;;;;;19.20;84.61;100953.75;10455765;28;20056;-62
2021/07/14 02:35:36;;;;;;;33.65;23.52;;;;;;;18.94;85.68;100941.06;10455609;28;20049;-59
2021/07/14 02:41:20;;;;;;;33.25;22.83;;;;;;;18.92;86.26;100940.34;10456532;28;20068;-59
2021/07/14 02:46:27;;;;;;;31.90;21.05;;;;;;;18.86;86.48;100944.41;10406198;28;20405;-61
2021/07/14 02:51:32;;;;;;;40.28;25.80;;;;;;;18.89;86.36;100945.94;10456084;28;20478;-60
2021/07/14 02:56:35;;;;;;;38.28;23.95;;;;;;;18.97;86.00;100947.91;10462217;28;20041;-59
2021/07/14 03:01:41;;;;;;;33.97;24.00;;;;;;;19.06;86.01;100945.25;10463755;28;20056;-60
2021/07/14 03:06:44;;;;;;;38.95;22.48;;;;;;;19.13;85.59;100942.84;10463153;28;20041;-60
2021/07/14 03:11:47;;;;;;;41.42;26.95;;;;;;;18.93;86.46;100942.88;10461721;28;20057;-60
2021/07/14 03:16:50;;;;;;;45.95;27.17;;;;;;;18.91;86.89;100941.31;10462885;28;20045;-59
2021/07/14 03:21:54;;;;;;;34.00;22.90;;;;;;;19.02;86.19;100946.50;10461542;28;20083;-60
2021/07/14 03:26:57;;;;;;;43.50;24.67;;;;;;;19.11;85.94;100945.69;10462564;28;20044;-60
2021/07/14 03:32:01;;;;;;;37.95;25.55;;;;;;;19.05;85.36;100940.91;10461229;28;20073;-59
2021/07/14 03:37:06;;;;;;;41.28;25.08;;;;;;;18.99;85.80;100938.81;10461914;28;20073;-58
2021/07/14 03:42:15;;;;;;;39.17;23.30;;;;;;;18.90;86.50;100937.84;10461911;28;20048;-61
2021/07/14 03:47:19;;;;;;;31.15;21.13;;;;;;;18.99;86.06;100930.03;10461108;28;20051;-59
2021/07/14 03:52:22;;;;;;;38.15;23.73;;;;;;;19.04;85.85;100933.09;10460207;28;20052;-61
2021/07/14 03:57:24;;;;;;;45.05;26.40;;;;;;;18.94;86.06;100936.56;10461216;28;20393;-59
2021/07/14 04:02:27;;;;;;;47.30;28.25;;;;;;;18.91;86.40;100931.56;10461136;28;20080;-60
2021/07/14 04:07:30;;;;;;;39.83;24.45;;;;;;;18.73;86.42;100925.25;10459678;28;20370;-59
2021/07/14 04:12:32;;;;;;;44.63;27.23;;;;;;;18.67;86.82;100933.75;10461205;28;20505;-60
2021/07/14 04:17:35;;;;;;;40.70;26.20;;;;;;;18.88;86.10;100938.97;10460454;28;20481;-60
2021/07/14 04:22:37;;;;;;;42.85;27.98;;;;;;;18.79;86.44;100932.63;10460922;28;20056;-60
2021/07/14 04:27:39;;;;;;;41.22;25.10;;;;;;;18.98;86.09;100934.50;10460289;28;20056;-59
2021/07/14 04:32:42;;;;;;;36.53;23.95;;;;;;;19.05;85.75;100932.97;10459947;28;20055;-59
2021/07/14 04:37:47;;;;;;;28.58;21.88;;;;;;;18.84;86.12;100925.13;10459643;28;20378;-60
2021/07/14 04:42:51;;;;;;;45.55;27.83;;;;;;;18.82;86.07;100935.00;10459516;28;20413;-59
2021/07/14 04:47:53;;;;;;;44.10;26.70;;;;;;;18.74;86.33;100935.72;10458936;28;20405;-59
2021/07/14 04:52:56;;;;;;;38.78;26.67;;;;;;;18.69;86.31;100935.28;10459105;28;20485;-60
2021/07/14 04:57:58;;;;;;;43.80;25.92;;;;;;;18.66;86.72;100940.00;10459059;28;20041;-58
2021/07/14 05:03:00;;;;;;;41.90;24.83;;;;;;;18.70;86.36;100939.59;10459323;28;20048;-61
2021/07/14 05:08:03;;;;;;;35.58;23.70;;;;;;;18.71;86.23;100935.97;10458402;28;20056;-61
2021/07/14 05:13:06;;;;;;;33.72;22.90;;;;;;;18.45;86.52;100940.94;10458436;28;20049;-60
2021/07/14 05:18:08;;;;;;;32.85;21.50;;;;;;;18.48;86.54;100938.03;10457822;28;20084;-60
2021/07/14 05:23:10;;;;;;;35.08;21.65;;;;;;;18.55;86.38;100938.31;10458131;28;20045;-60
2021/07/14 05:28:13;;;;;;;32.97;19.58;;;;;;;18.60;86.35;100937.91;10457562;28;20405;-60
2021/07/14 05:33:15;;;;;;;29.00;19.08;;;;;;;18.78;85.18;100943.38;10458199;28;20045;-60
2021/07/14 05:38:21;;;;;;;28.25;20.70;;;;;;;18.82;85.85;100945.63;10455982;28;20048;-60
2021/07/14 05:43:23;;;;;;;28.75;18.77;;;;;;;18.70;85.68;100957.34;10457441;28;20052;-60
2021/07/14 05:48:26;;;;;;;23.48;16.52;;;;;;;18.77;85.95;100955.81;10457186;28;20052;-60
2021/07/14 05:53:28;;;;;;;28.88;17.80;;;;;;;18.70;85.53;100958.16;10457150;28;20053;-61
2021/07/14 05:58:30;;;;;;;28.27;18.08;;;;;;;18.66;85.84;100963.88;10457153;28;20056;-59
2021/07/14 06:03:33;;;;;;;32.03;20.10;;;;;;;18.57;86.28;100968.19;10456777;28;20481;-58
2021/07/14 06:08:35;;;;;;;30.02;19.60;;;;;;;18.88;85.48;100966.31;10455066;28;20382;-60
2021/07/14 06:13:38;;;;;;;33.67;20.65;;;;;;;18.82;85.69;100971.31;10455484;28;20053;-60
2021/07/14 06:18:41;;;;;;;23.58;18.38;;;;;;;18.91;85.13;100974.00;10455152;28;20048;-60
2021/07/14 06:23:43;;;;;;;29.95;18.85;;;;;;;18.92;85.85;100969.53;10456532;28;20353;-60
2021/07/14 06:28:45;;;;;;;27.90;18.73;;;;;;;19.11;85.26;100963.38;10463146;28;20405;-60
2021/07/14 06:33:48;;;;;;;25.77;19.20;;;;;;;18.94;85.82;100968.41;10464499;28;20067;-60
2021/07/14 06:38:50;;;;;;;30.48;21.25;;;;;;;19.02;86.20;100973.03;10464348;28;20075;-60
2021/07/14 06:43:54;;;;;;;30.60;20.27;;;;;;;19.22;84.72;100981.00;10464351;28;20056;-61
2021/07/14 06:48:57;;;;;;;30.52;21.90;;;;;;;18.75;86.80;100969.19;10464439;28;20045;-59
2021/07/14 06:53:59;;;;;;;28.25;20.55;;;;;;;18.90;86.30;100977.63;10463978;28;20044;-59
2021/07/14 06:59:02;;;;;;;28.38;20.30;;;;;;;18.94;85.83;100978.19;10463734;28;20045;-61
2021/07/14 07:04:04;;;;;;;24.90;18.88;;;;;;;19.01;86.02;100974.00;10463558;28;20045;-61
2021/07/14 07:09:07;;;;;;;27.65;21.38;;;;;;;19.06;85.31;100971.78;10462899;28;20520;-61
2021/07/14 07:14:09;;;;;;;36.83;20.42;;;;;;;19.09;85.91;100973.31;10462964;28;20049;-60
2021/07/14 07:19:11;;;;;;;35.10;23.40;;;;;;;18.81;86.64;100974.94;10462673;28;20045;-59
2021/07/14 07:24:14;;;;;;;33.47;22.67;;;;;;;19.01;85.70;100974.00;10462567;28;20056;-59
2021/07/14 07:29:17;;;;;;;28.27;19.85;;;;;;;18.91;86.12;100965.19;10463069;28;20052;-60
2021/07/14 07:34:21;;;;;;;24.52;18.85;;;;;;;19.04;85.82;100962.28;10462112;28;20126;-60
2021/07/14 07:39:24;;;;;;;26.10;20.50;;;;;;;19.12;86.10;100960.59;10461699;28;20045;-60
2021/07/14 07:44:26;;;;;;;24.05;18.35;;;;;;;19.00;85.74;100959.06;10462064;28;20060;-59
2021/07/14 07:49:29;;;;;;;22.85;17.40;;;;;;;18.98;85.31;100966.34;10461848;28;20056;-61
2021/07/14 07:54:31;;;;;;;22.58;17.38;;;;;;;19.21;85.59;100968.72;10461478;28;20400;-61
2021/07/14 07:59:35;;;;;;;23.02;19.05;;;;;;;18.99;86.19;100961.88;10461317;28;20045;-59
2021/07/14 08:04:37;;;;;;;24.13;18.13;;;;;;;18.97;86.17;100958.53;10459747;28;20064;-61
2021/07/14 08:09:39;;;;;;;24.42;17.48;;;;;;;18.96;85.71;100962.13;10460758;28;20061;-61
2021/07/14 08:14:42;;;;;;;32.28;21.73;;;;;;;18.92;86.10;100969.53;10460666;28;20045;-62
2021/07/14 08:19:44;;;;;;;28.42;19.92;;;;;;;19.02;85.49;100966.91;10459374;28;20041;-61
2021/07/14 08:24:46;;;;;;;27.35;20.58;;;;;;;18.93;85.75;100968.56;10460461;28;20052;-59
2021/07/14 08:29:49;;;;;;;31.45;20.13;;;;;;;18.94;85.47;100962.28;10460177;28;20045;-60
2021/07/14 08:34:51;;;;;;;31.58;22.27;;;;;;;19.09;85.01;100962.69;10459713;28;20045;-61
2021/07/14 08:39:55;;;;;;;28.98;19.70;;;;;;;19.19;84.87;100957.41;10459689;28;20049;-61
2021/07/14 08:44:57;;;;;;;26.38;20.02;;;;;;;19.20;84.62;100946.66;10458409;28;20111;-60
2021/07/14 08:50:01;;;;;;;35.63;23.35;;;;;;;18.92;85.64;100950.97;10457053;28;20048;-60
2021/07/14 08:55:03;;;;;;;26.58;19.55;;;;;;;19.04;84.93;100949.00;10458627;28;20497;-60
2021/07/14 09:00:14;;;;;;;31.92;21.05;;;;;;;19.11;84.76;100950.97;10459162;28;20049;-61
2021/07/14 09:05:17;;;;;;;24.88;17.98;;;;;;;18.94;85.10;100962.28;10458713;28;20059;-60
2021/07/14 09:10:19;;;;;;;32.53;20.55;;;;;;;19.03;85.15;100961.44;10458963;28;20056;-61
2021/07/14 09:15:25;;;;;;;33.72;22.75;;;;;;;19.17;84.98;100957.53;10458287;28;20052;-60
2021/07/14 09:20:30;;;;;;;28.13;20.83;;;;;;;19.21;83.92;100958.91;10458026;28;20413;-59
2021/07/14 09:25:57;;;;;;;30.33;22.35;;;;;;;19.07;84.47;100954.06;10457817;28;20082;-59
2021/07/14 09:31:04;;;;;;;26.17;20.20;;;;;;;19.34;83.98;100955.16;10457821;28;20049;-60
2021/07/14 09:36:06;;;;;;;26.42;20.17;;;;;;;19.11;84.65;100952.78;10457812;28;20045;-60
2021/07/14 09:41:13;;;;;;;25.13;18.90;;;;;;;19.05;84.74;100948.88;10457985;28;20051;-59
2021/07/14 09:46:17;;;;;;;34.97;24.35;;;;;;;18.86;85.88;100954.16;10456205;28;20059;-61
2021/07/14 09:51:22;;;;;;;34.88;24.30;;;;;;;18.88;86.02;100953.06;10456868;28;20049;-62
2021/07/14 09:56:27;;;;;;;42.47;23.65;;;;;;;18.91;85.82;100954.59;10457415;28;20045;-62
2021/07/14 10:01:45;;;;;;;37.88;24.83;;;;;;;19.04;85.39;100956.97;10456621;28;20051;-62
2021/07/14 10:06:48;;;;;;;35.03;24.63;;;;;;;19.19;84.84;100962.72;10457005;28;20045;-62
2021/07/14 10:11:51;;;;;;;27.85;22.40;;;;;;;19.25;84.69;100964.81;10456386;28;20136;-62
2021/07/14 10:16:55;;;;;;;39.53;24.77;;;;;;;19.09;85.56;100975.97;10455601;28;20045;-63
2021/07/14 10:21:58;;;;;;;35.40;23.75;;;;;;;19.30;84.31;100973.19;10456453;28;20061;-63
2021/07/14 10:27:00;;;;;;;35.97;26.45;;;;;;;19.17;85.25;100967.31;10454848;28;20416;-63
2021/07/14 10:32:03;;;;;;;35.25;25.35;;;;;;;18.97;85.90;100967.31;10455031;28;20481;-64
2021/07/14 10:37:06;;;;;;;40.53;28.52;;;;;;;18.90;86.49;100959.06;10455903;28;20052;-63
2021/07/14 10:42:08;;;;;;;44.30;27.67;;;;;;;19.11;85.76;100960.75;10455078;28;20385;-64
2021/07/14 10:47:11;;;;;;;46.75;29.80;;;;;;;19.19;85.62;100966.19;10455172;28;20048;-63
2021/07/14 10:52:14;;;;;;;38.92;26.13;;;;;;;19.05;86.18;100970.09;10456284;28;20075;-64
2021/07/14 10:57:16;;;;;;;40.03;27.20;;;;;;;19.04;85.97;100963.09;10455625;28;20056;-63
2021/07/14 11:02:39;;;;;;;57.72;30.08;;;;;;;18.93;86.88;100969.41;10454537;28;20049;-64
2021/07/14 11:07:46;;;;;;;49.53;28.42;;;;;;;18.77;87.17;100971.72;10455793;28;20045;-65
2021/07/14 11:12:49;;;;;;;44.83;29.10;;;;;;;18.97;86.62;100969.13;10457467;28;20519;-64
2021/07/14 11:17:51;;;;;;;48.70;29.00;;;;;;;19.05;86.19;100972.75;10462371;28;20052;-61
2021/07/14 11:22:58;;;;;;;40.33;25.85;;;;;;;19.03;86.50;100973.88;10461205;28;20053;-61
2021/07/14 11:28:08;;;;;;;42.22;27.15;;;;;;;19.16;85.81;100979.72;10461827;28;20136;-60
2021/07/14 11:33:21;;;;;;;45.13;26.33;;;;;;;19.02;86.65;100974.84;10462511;28;20052;-60
2021/07/14 11:38:29;;;;;;;43.65;28.05;;;;;;;19.10;86.55;100982.97;10462854;28;20051;-61
2021/07/14 11:43:42;;;;;;;46.35;27.95;;;;;;;18.91;86.68;100978.47;10460976;28;20076;-60
2021/07/14 11:48:50;;;;;;;35.72;23.40;;;;;;;19.00;86.24;100984.78;10462331;28;20127;-61
2021/07/14 11:53:54;;;;;;;43.03;24.00;;;;;;;18.95;86.55;100982.53;10461610;28;20056;-60
2021/07/14 11:58:59;;;;;;;44.72;26.90;;;;;;;19.00;86.75;100987.44;10461197;28;20405;-61
2021/07/14 12:04:02;;;;;;;45.15;26.95;;;;;;;18.78;87.59;100986.66;10461691;28;20045;-60
2021/07/14 12:09:14;;;;;;;44.22;24.70;;;;;;;19.16;86.03;100985.03;10460726;28;20049;-60
2021/07/14 12:14:26;;;;;;;42.50;26.83;;;;;;;19.09;86.75;100974.16;10460823;28;20064;-61
2021/07/14 12:19:50;;;;;;;41.15;26.02;;;;;;;18.99;86.63;100970.66;10460566;28;20401;-60
2021/07/14 12:24:58;;;;;;;36.15;23.65;;;;;;;19.16;86.13;100974.44;10460140;28;20052;-60
2021/07/14 12:30:05;;;;;;;39.85;23.60;;;;;;;19.27;85.27;100968.97;10460594;28;20053;-61
2021/07/14 12:35:14;;;;;;;42.08;25.30;;;;;;;19.35;85.44;100954.16;10460074;28;20079;-61
2021/07/14 12:40:28;;;;;;;34.72;24.48;;;;;;;19.46;84.65;100949.53;10459944;28;20056;-60
2021/07/14 12:45:34;;;;;;;39.35;23.52;;;;;;;19.51;84.32;100957.06;10458445;28;20503;-61
2021/07/14 12:50:39;;;;;;;34.72;23.60;;;;;;;19.42;85.13;100949.97;10459453;28;20404;-62
2021/07/14 12:55:42;;;;;;;39.28;24.08;;;;;;;19.45;84.77;100949.66;10459301;28;20056;-62
2021/07/14 13:00:46;;;;;;;37.67;23.25;;;;;;;19.53;84.59;100955.09;10459179;28;20044;-62
2021/07/14 13:05:49;;;;;;;42.88;23.73;;;;;;;19.51;84.38;100954.41;10458608;28;20055;-62
2021/07/14 13:10:59;;;;;;;33.53;23.15;;;;;;;19.62;83.65;100941.00;10458768;28;20045;-62
2021/07/14 13:16:03;;;;;;;35.65;22.85;;;;;;;19.57;84.23;100931.75;10457285;28;20056;-61
2021/07/14 13:21:08;;;;;;;35.40;22.90;;;;;;;19.69;84.11;100927.97;10458541;28;20128;-62
2021/07/14 13:26:20;;;;;;;34.88;22.52;;;;;;;19.74;84.03;100933.69;10456877;28;20103;-61
2021/07/14 13:31:26;;;;;;;33.17;24.08;;;;;;;20.00;83.03;100922.44;10458284;28;20041;-62
2021/07/14 13:36:37;;;;;;;31.60;23.15;;;;;;;19.94;83.59;100921.22;10455943;28;20060;-61
2021/07/14 13:41:40;;;;;;;33.35;23.27;;;;;;;19.99;82.80;100921.59;10456817;28;20045;-60
2021/07/14 13:46:43;;;;;;;32.78;21.67;;;;;;;20.11;82.38;100910.78;10456155;28;20049;-62
2021/07/14 13:51:49;;;;;;;24.50;19.77;;;;;;;20.00;83.08;100906.50;10457033;28;20494;-61
2021/07/14 13:56:59;;;;;;;28.55;21.90;;;;;;;20.01;83.04;100900.19;10456717;28;20049;-61
2021/07/14 14:02:07;;;;;;;31.38;22.30;;;;;;;20.23;82.38;100897.13;10456799;28;20531;-60
2021/07/14 14:07:30;;;;;;;28.33;20.60;;;;;;;20.33;82.21;100899.75;10456549;28;20143;-62
2021/07/14 14:12:39;;;;;;;30.63;21.45;;;;;;;20.47;81.86;100900.22;10456173;28;20547;-62
2021/07/14 14:17:41;;;;;;;23.55;19.98;;;;;;;20.39;81.48;100901.81;10456313;28;20053;-61
2021/07/14 14:22:44;;;;;;;29.00;20.10;;;;;;;20.42;81.79;100898.84;10457187;28;20076;-60
2021/07/14 14:28:00;;;;;;;26.25;20.63;;;;;;;20.73;80.57;100903.00;10455282;28;20045;-60
2021/07/14 14:33:07;;;;;;;27.23;21.38;;;;;;;20.47;81.96;100905.53;10456504;28;20049;-61
2021/07/14 14:38:11;;;;;;;23.08;20.15;;;;;;;20.87;80.69;100891.00;10456331;28;20045;-62
2021/07/14 14:43:14;;;;;;;25.23;19.10;;;;;;;20.97;79.84;100881.91;10456152;28;20055;-61
2021/07/14 14:48:17;;;;;;;23.27;18.48;;;;;;;21.12;79.80;100887.53;10460317;28;20401;-61
2021/07/14 14:53:22;;;;;;;24.13;19.42;;;;;;;21.14;79.64;100871.41;10464070;28;20431;-61
2021/07/14 14:58:24;;;;;;;24.80;18.48;;;;;;;21.10;79.51;100870.88;10464120;28;20139;-60
2021/07/14 15:03:27;;;;;;;20.25;17.30;;;;;;;21.06;79.29;100861.53;10463903;28;20400;-60
2021/07/14 15:08:29;;;;;;;22.55;18.83;;;;;;;21.15;79.61;100857.94;10461947;28;20045;-62
2021/07/14 15:13:31;;;;;;;24.65;16.92;;;;;;;20.88;79.52;100858.06;10462026;28;20396;-61
2021/07/14 15:18:40;;;;;;;20.35;16.52;;;;;;;20.96;79.82;100866.09;10461683;28;20045;-60
2021/07/14 15:23:47;;;;;;;21.80;17.35;;;;;;;21.05;79.64;100867.84;10463130;28;20055;-61
2021/07/14 15:28:51;;;;;;;18.90;15.93;;;;;;;21.19;79.20;100870.94;10462546;28;20512;-62
2021/07/14 15:33:57;;;;;;;19.48;16.83;;;;;;;21.12;78.76;100860.09;10462720;28;20052;-60
2021/07/14 15:39:00;;;;;;;21.83;16.42;;;;;;;21.09;79.27;100868.38;10462235;28;20068;-60
2021/07/14 15:44:05;;;;;;;21.58;15.52;;;;;;;21.07;79.05;100852.56;10462232;28;20405;-60
2021/07/14 15:49:07;;;;;;;20.88;16.75;;;;;;;21.25;78.46;100846.34;10460744;28;20119;-61
2021/07/14 15:54:10;;;;;;;22.10;17.48;;;;;;;20.86;79.67;100854.72;10462117;28;20504;-61
2021/07/14 15:59:12;;;;;;;19.05;17.00;;;;;;;21.28;78.27;100862.88;10460798;28;20045;-58
2021/07/14 16:04:15;;;;;;;19.60;15.93;;;;;;;21.07;79.63;100849.91;10461200;28;20414;-60
2021/07/14 16:09:21;;;;;;;19.25;16.05;;;;;;;21.13;78.84;100862.59;10461073;28;20064;-60
2021/07/14 16:14:23;;;;;;;19.88;15.13;;;;;;;21.38;78.31;100859.25;10460840;28;20447;-60
2021/07/14 16:19:29;;;;;;;19.52;16.17;;;;;;;21.41;78.29;100857.09;10461019;28;20119;-62
2021/07/14 16:24:32;;;;;;;18.65;16.65;;;;;;;21.25;79.53;100857.00;10459289;28;20049;-62
2021/07/14 16:29:36;;;;;;;25.95;17.83;;;;;;;20.98;79.83;100837.53;10459139;28;20412;-60
2021/07/14 16:34:38;;;;;;;20.52;15.32;;;;;;;21.10;79.61;100828.28;10460331;28;20057;-61
2021/07/14 16:39:41;;;;;;;20.67;18.08;;;;;;;20.92;80.93;100835.47;10459900;28;20402;-61
2021/07/14 16:44:43;;;;;;;24.83;18.27;;;;;;;20.73;81.41;100837.34;10458752;28;20049;-62
2021/07/14 16:49:45;;;;;;;22.05;18.40;;;;;;;20.71;81.40;100833.13;10459270;28;20435;-60
2021/07/14 16:54:47;;;;;;;27.50;19.77;;;;;;;20.56;81.59;100833.66;10459686;28;20400;-61
2021/07/14 16:59:50;;;;;;;27.70;19.58;;;;;;;20.46;82.85;100827.59;10459255;28;20492;-61
2021/07/14 17:04:53;;;;;;;24.90;21.17;;;;;;;20.40;82.77;100826.34;10459033;28;20059;-62
2021/07/14 17:09:55;;;;;;;26.17;20.83;;;;;;;20.44;83.11;100821.56;10457559;28;20044;-60
2021/07/14 17:14:58;;;;;;;27.33;21.02;;;;;;;20.26;83.74;100823.38;10458368;28;20490;-61
2021/07/14 17:20:00;;;;;;;24.58;20.25;;;;;;;20.36;83.61;100825.00;10458904;28;20045;-61
2021/07/14 17:25:04;;;;;;;25.88;21.92;;;;;;;20.26;84.26;100826.03;10458341;28;20076;-61
2021/07/14 17:30:09;;;;;;;27.40;20.13;;;;;;;20.12;84.48;100819.41;10458727;28;20072;-61
2021/07/14 17:35:11;;;;;;;25.63;20.73;;;;;;;19.96;85.62;100820.09;10457347;28;20500;-61
2021/07/14 17:40:14;;;;;;;25.48;19.85;;;;;;;19.92;86.74;100816.91;10457479;28;20052;-60
2021/07/14 17:45:17;;;;;;;36.25;27.08;;;;;;;19.76;87.96;100806.06;10457537;28;20072;-61
2021/07/14 17:50:20;;;;;;;40.13;27.38;;;;;;;19.74;88.16;100802.72;10457892;28;20052;-60
2021/07/14 17:55:22;;;;;;;42.47;31.38;;;;;;;19.72;88.21;100818.78;10455744;28;20489;-61
2021/07/14 18:00:24;;;;;;;42.42;29.83;;;;;;;19.66;88.12;100827.34;10455720;28;20547;-61
2021/07/14 18:05:27;;;;;;;54.70;36.25;;;;;;;19.56;88.59;100831.84;10457435;28;20049;-60
2021/07/14 18:10:29;;;;;;;47.55;31.92;;;;;;;19.56;88.60;100840.66;10457042;28;20053;-60
2021/07/14 18:15:32;;;;;;;49.97;30.50;;;;;;;19.34;89.41;100847.16;10456577;28;20045;-62
2021/07/14 18:20:35;;;;;;;57.53;32.22;;;;;;;19.38;89.28;100837.91;10456490;28;20045;-61
2021/07/14 18:25:40;;;;;;;49.90;30.95;;;;;;;19.38;89.41;100845.88;10456395;28;20057;-62
2021/07/14 18:30:42;;;;;;;45.85;31.42;;;;;;;19.29;89.44;100842.25;10456203;28;20481;-62
2021/07/14 18:35:45;;;;;;;45.30;31.00;;;;;;;19.26;89.95;100842.53;10456068;28;20057;-62
2021/07/14 18:40:51;;;;;;;45.72;30.17;;;;;;;19.23;89.96;100831.38;10456258;28;20049;-61
2021/07/14 18:45:54;;;;;;;45.17;31.23;;;;;;;19.11;90.26;100836.03;10456051;28;20053;-64
2021/07/14 18:50:56;;;;;;;38.35;24.02;;;;;;;19.23;89.94;100831.38;10455973;28;20044;-62
2021/07/14 18:55:59;;;;;;;47.63;31.23;;;;;;;19.10;90.38;100827.22;10456234;28;20049;-62
2021/07/14 19:01:03;;;;;;;27.95;22.92;;;;;;;19.14;90.39;100824.28;10455946;28;20052;-61
2021/07/14 19:06:06;;;;;;;33.85;23.63;;;;;;;19.22;89.79;100819.94;10454305;28;20057;-63
2021/07/14 19:11:09;;;;;;;29.90;22.30;;;;;;;19.22;90.03;100819.13;10454693;28;20059;-61
2021/07/14 19:16:11;;;;;;;38.63;23.83;;;;;;;19.22;89.94;100833.22;10455288;28;20045;-60
2021/07/14 19:21:16;;;;;;;28.33;21.70;;;;;;;19.28;89.87;100830.00;10455678;28;20048;-60
2021/07/14 19:26:18;;;;;;;29.55;22.55;;;;;;;19.21;90.35;100854.59;10455052;28;20444;-62
2021/07/14 19:31:22;;;;;;;38.17;27.65;;;;;;;19.19;90.53;100854.72;10455532;28;20044;-62
2021/07/14 19:36:24;;;;;;;31.27;24.63;;;;;;;19.27;89.83;100868.13;10460469;28;20397;-62
2021/07/14 19:41:26;;;;;;;40.97;27.27;;;;;;;19.27;89.60;100875.25;10462716;28;20041;-61
2021/07/14 19:46:31;;;;;;;34.83;24.95;;;;;;;19.14;90.05;100875.53;10460730;28;20060;-62
2021/07/14 19:51:34;;;;;;;35.55;25.45;;;;;;;19.16;90.28;100892.16;10461646;28;20072;-60
2021/07/14 19:56:38;;;;;;;37.00;26.13;;;;;;;19.31;89.77;100898.69;10461457;28;20489;-62
2021/07/14 20:01:41;;;;;;;29.05;22.05;;;;;;;19.14;90.27;100890.63;10461523;28;20397;-62
2021/07/14 20:06:43;;;;;;;40.53;27.75;;;;;;;19.20;90.09;100893.56;10460997;28;20426;-63
2021/07/14 20:11:46;;;;;;;27.52;23.23;;;;;;;19.19;90.15;100901.66;10460684;28;20498;-60
2021/07/14 20:16:48;;;;;;;30.05;21.67;;;;;;;19.21;89.94;100905.84;10460497;28;20405;-61
2021/07/14 20:21:51;;;;;;;23.85;18.80;;;;;;;19.39;89.61;100915.75;10460961;28;20045;-61
2021/07/14 20:26:54;;;;;;;25.40;19.83;;;;;;;19.27;89.94;100920.38;10460265;28;20049;-61
2021/07/14 20:31:56;;;;;;;24.88;20.15;;;;;;;19.38;89.56;100914.06;10442905;28;20044;-64
2021/07/14 20:36:59;;;;;;;22.77;20.10;;;;;;;19.18;90.53;100915.91;10458466;28;20132;-62
2021/07/14 20:42:02;;;;;;;39.03;28.95;;;;;;;19.13;90.59;100921.63;10460107;28;20048;-61
2021/07/14 20:47:05;;;;;;;37.53;26.40;;;;;;;19.21;90.03;100928.91;10458185;28;20110;-62
2021/07/14 20:52:07;;;;;;;40.88;27.13;;;;;;;19.20;89.87;100938.69;10459278;28;20052;-64
2021/07/14 20:57:09;;;;;;;41.10;28.05;;;;;;;19.19;90.03;100952.09;10458224;28;20051;-61
2021/07/14 21:02:12;;;;;;;32.80;25.88;;;;;;;19.33;89.30;100946.34;10459007;28;20044;-62
2021/07/14 21:07:15;;;;;;;40.50;30.52;;;;;;;19.13;89.83;100945.50;10458406;28;20405;-63
2021/07/14 21:12:18;;;;;;;34.72;25.23;;;;;;;19.09;90.53;100952.91;10458976;28;20053;-62
2021/07/14 21:17:20;;;;;;;46.25;31.05;;;;;;;19.25;90.03;100955.03;10458018;28;20500;-62
2021/07/14 21:22:23;;;;;;;37.97;28.13;;;;;;;19.06;90.22;100952.38;10458620;28;20045;-62
2021/07/14 21:27:25;;;;;;;35.95;26.75;;;;;;;19.18;89.87;100950.41;10457814;28;20493;-62
2021/07/14 21:32:27;;;;;;;35.60;25.80;;;;;;;19.26;89.50;100943.41;10457639;28;20504;-62
2021/07/14 21:37:30;;;;;;;40.72;27.80;;;;;;;19.07;90.13;100959.34;10456421;28;20045;-61
2021/07/14 21:42:32;;;;;;;49.95;32.00;;;;;;;19.15;89.89;100963.94;10457401;28;20056;-61
2021/07/14 21:47:35;;;;;;;35.78;25.63;;;;;;;19.22;89.44;100968.56;10456009;28;20539;-62
2021/07/14 21:52:37;;;;;;;39.47;28.48;;;;;;;19.24;89.32;100968.44;10457733;28;20044;-62
2021/07/14 21:57:40;;;;;;;27.95;22.50;;;;;;;19.24;88.67;100960.47;10456742;28;20051;-62
2021/07/14 22:02:43;;;;;;;48.20;33.70;;;;;;;19.17;89.58;100972.63;10457086;28;20045;-62
2021/07/14 22:07:45;;;;;;;40.90;30.58;;;;;;;19.17;89.44;100975.28;10455223;28;20053;-62
2021/07/14 22:12:48;;;;;;;38.17;29.77;;;;;;;19.07;90.08;100975.28;10456758;28;20053;-64
2021/07/14 22:17:54;;;;;;;35.60;28.02;;;;;;;19.15;89.48;100983.38;10455244;28;20048;-62
2021/07/14 22:23:00;;;;;;;43.58;31.30;;;;;;;19.00;90.21;100985.59;10456496;28;20049;-61
2021/07/14 22:28:07;;;;;;;42.13;31.48;;;;;;;19.10;89.71;100993.56;10456935;28;20052;-62
2021/07/14 22:33:14;;;;;;;42.75;30.77;;;;;;;19.15;89.74;100999.31;10456452;28;20052;-62
2021/07/14 22:38:19;;;;;;;30.73;25.60;;;;;;;19.07;89.89;100993.84;10456422;28;20045;-63
2021/07/14 22:43:25;;;;;;;39.90;31.92;;;;;;;19.16;89.75;100990.34;10455107;28;20056;-63
2021/07/14 22:48:27;;;;;;;35.38;27.88;;;;;;;19.29;89.16;100990.91;10455968;28;20373;-62
2021/07/14 22:53:30;;;;;;;25.92;23.17;;;;;;;19.28;89.04;100991.03;10454466;28;20509;-62